createdAt,value
2023-05-10T07:20:29.252Z,12.18
2023-05-10T07:22:38.501Z,12.31
2023-05-10T07:25:02.248Z,12.36
2023-05-10T07:26:04.109Z,12.33
2023-05-10T07:27:05.695Z,12.42
2023-05-10T07:29:24.886Z,12.43
2023-05-10T07:30:26.296Z,12.52
2023-05-10T07:31:28.047Z,12.51
2023-05-10T07:32:29.650Z,12.65
2023-05-10T07:34:34.630Z,12.52
2023-05-10T07:35:36.754Z,12.56
2023-05-10T07:36:38.196Z,12.61
2023-05-10T07:37:39.543Z,12.54
2023-05-10T07:38:41.263Z,12.69
2023-05-10T07:39:42.619Z,12.64
2023-05-10T07:40:44.110Z,12.56
2023-05-10T07:41:45.519Z,12.64
2023-05-10T07:42:46.949Z,12.73
2023-05-10T07:43:48.307Z,12.78
2023-05-10T07:44:49.707Z,12.74
2023-05-10T07:45:51.871Z,12.81
2023-05-10T07:46:54.173Z,12.64
2023-05-10T07:47:55.568Z,12.68
2023-05-10T07:48:57.015Z,12.84
2023-05-10T07:49:58.501Z,12.71
2023-05-10T07:50:59.915Z,12.81
2023-05-10T07:52:01.533Z,12.78
2023-05-10T07:53:02.877Z,12.71
2023-05-10T07:54:04.366Z,12.68
2023-05-10T07:55:06.406Z,12.71
2023-05-10T07:56:30.988Z,12.91
2023-05-10T07:57:32.397Z,12.95
2023-05-10T07:58:33.940Z,12.94
2023-05-10T07:59:35.417Z,12.93
2023-05-10T08:00:40.344Z,12.98
2023-05-10T08:01:43.058Z,13.00
2023-05-10T08:02:44.681Z,13.04
2023-05-10T08:03:46.286Z,13.20
2023-05-10T08:04:47.775Z,13.29
2023-05-10T08:05:49.261Z,13.17
2023-05-10T08:06:50.791Z,13.46
2023-05-10T08:07:52.162Z,13.56
2023-05-10T08:08:54.971Z,13.55
2023-05-10T08:09:56.475Z,13.56
2023-05-10T08:10:57.890Z,13.57
2023-05-10T08:22:05.380Z,13.12
2023-05-10T08:23:07.144Z,13.10
2023-05-10T08:24:08.556Z,13.08
2023-05-10T08:25:10.037Z,13.28
2023-05-10T08:26:11.892Z,13.31
2023-05-10T08:27:13.656Z,13.34
2023-05-10T08:28:15.104Z,13.51
2023-05-10T08:29:17.081Z,13.51
2023-05-10T08:30:18.583Z,13.52
2023-05-10T08:31:20.418Z,13.62
2023-05-10T08:32:22.082Z,13.75
2023-05-10T08:33:23.620Z,13.93
2023-05-10T08:34:25.314Z,14.04
2023-05-10T08:35:26.923Z,14.21
2023-05-10T08:36:28.646Z,14.04
2023-05-10T08:37:31.136Z,13.93
2023-05-10T08:38:32.527Z,13.95
2023-05-10T08:39:36.805Z,13.72
2023-05-10T08:40:38.748Z,13.77
2023-05-10T08:41:41.360Z,13.57
2023-05-10T08:42:48.910Z,13.73
2023-05-10T08:43:51.963Z,13.80
2023-05-10T08:44:54.774Z,13.77
2023-05-10T08:45:59.465Z,13.74
2023-05-10T08:47:05.810Z,13.85
2023-05-10T08:48:09.148Z,13.93
2023-05-10T08:49:14.111Z,14.09
2023-05-10T08:50:16.446Z,14.27
2023-05-10T08:51:27.709Z,13.92
2023-05-10T08:52:30.990Z,13.66
2023-05-10T08:53:36.337Z,13.56
2023-05-10T08:54:39.042Z,13.38
2023-05-10T08:55:42.967Z,13.49
2023-05-10T08:56:44.364Z,13.75
2023-05-10T08:57:46.362Z,13.74
2023-05-10T08:58:48.173Z,13.63
2023-05-10T08:59:49.575Z,13.84
2023-05-10T09:00:54.648Z,13.83
2023-05-10T09:01:58.762Z,13.93
2023-05-10T09:03:01.230Z,14.02
2023-05-10T09:04:03.864Z,13.90
2023-05-10T09:05:06.355Z,14.17
2023-05-10T09:06:08.810Z,14.11
2023-05-10T09:07:11.842Z,14.21
2023-05-10T09:08:16.780Z,14.31
2023-05-10T09:09:19.367Z,14.38
2023-05-10T09:10:21.625Z,14.53
2023-05-10T09:11:23.416Z,14.63
2023-05-10T09:12:24.966Z,14.67
2023-05-10T09:13:27.093Z,14.34
2023-05-10T09:14:28.707Z,14.54
2023-05-10T09:15:30.106Z,14.65
2023-05-10T09:16:31.648Z,14.69
2023-05-10T09:17:33.076Z,14.68
2023-05-10T09:18:34.589Z,14.51
2023-05-10T09:19:36.035Z,14.40
2023-05-10T09:20:37.501Z,14.40
2023-05-10T09:21:39.319Z,14.17
2023-05-10T09:22:41.275Z,13.96
2023-05-10T09:23:48.680Z,13.93
2023-05-10T09:25:14.678Z,13.67
2023-05-10T09:26:16.959Z,13.61
2023-05-10T09:27:27.171Z,13.41
2023-05-10T09:28:32.078Z,13.53
2023-05-10T09:29:44.060Z,13.55
2023-05-10T09:30:54.658Z,13.55
2023-05-10T09:31:56.210Z,13.75
2023-05-10T09:32:59.375Z,13.61
2023-05-10T09:34:00.777Z,13.76
2023-05-10T09:35:07.998Z,13.78
2023-05-10T09:36:09.681Z,14.00
2023-05-10T09:37:11.641Z,14.14
2023-05-10T09:38:13.096Z,14.11
2023-05-10T09:39:14.463Z,14.29
2023-05-10T09:40:20.807Z,14.51
2023-05-10T09:41:24.225Z,14.62
2023-05-10T09:42:25.724Z,14.69
2023-05-10T09:43:28.309Z,14.41
2023-05-10T09:44:29.825Z,14.29
2023-05-10T09:45:34.165Z,14.31
2023-05-10T09:46:37.835Z,14.42
2023-05-10T09:47:39.553Z,14.42
2023-05-10T09:48:46.949Z,14.63
2023-05-10T09:49:52.270Z,14.99
2023-05-10T09:50:59.857Z,15.29
2023-05-10T09:52:08.872Z,15.23
2023-05-10T09:53:10.334Z,15.30
2023-05-10T09:54:13.187Z,14.95
2023-05-10T09:55:14.913Z,14.75
2023-05-10T09:56:34.541Z,14.94
2023-05-10T09:57:36.102Z,14.75
2023-05-10T09:58:41.397Z,14.83
2023-05-10T09:59:44.147Z,14.70
2023-05-10T10:00:48.588Z,14.91
2023-05-10T10:01:52.134Z,15.06
2023-05-10T10:03:01.055Z,15.16
2023-05-10T10:04:05.066Z,15.31
2023-05-10T10:05:08.188Z,15.19
2023-05-10T10:06:18.700Z,15.27
2023-05-10T10:07:26.447Z,14.96
2023-05-10T10:08:28.030Z,14.88
2023-05-10T10:09:29.747Z,14.47
2023-05-10T10:10:33.034Z,14.54
2023-05-10T10:11:38.818Z,14.68
2023-05-10T10:12:41.748Z,14.59
2023-05-10T10:13:43.703Z,14.61
2023-05-10T10:14:46.885Z,14.30
2023-05-10T10:15:51.978Z,14.15
2023-05-10T10:17:06.476Z,13.98
2023-05-10T10:18:13.731Z,13.99
2023-05-10T10:19:16.293Z,13.38
2023-05-10T10:20:19.275Z,13.30
2023-05-10T10:23:26.742Z,12.76
2023-05-10T10:26:12.531Z,12.68
2023-05-10T10:29:06.534Z,12.72
2023-05-10T10:32:10.328Z,12.57
2023-05-10T10:33:33.757Z,12.66
2023-05-10T10:34:35.849Z,12.74
2023-05-10T10:35:37.746Z,12.74
2023-05-10T10:36:45.878Z,12.89
2023-05-10T10:37:48.965Z,13.20
2023-05-10T10:39:00.385Z,13.19
2023-05-10T10:40:01.831Z,13.37
2023-05-10T10:41:08.930Z,13.36
2023-05-10T10:42:10.598Z,13.51
2023-05-10T10:43:25.579Z,13.37
2023-05-10T10:44:39.984Z,13.43
2023-05-10T10:45:42.355Z,13.50
2023-05-10T10:47:12.843Z,13.57
2023-05-10T10:48:22.554Z,13.66
2023-05-10T10:49:24.081Z,13.38
2023-05-10T10:50:25.452Z,13.49
2023-05-10T10:51:29.980Z,13.44
2023-05-10T10:52:46.961Z,13.36
2023-05-10T10:53:49.269Z,13.33
2023-05-10T10:54:52.374Z,13.12
2023-05-10T10:56:10.571Z,13.09
2023-05-10T10:57:15.746Z,13.30
2023-05-10T10:58:33.138Z,13.32
2023-05-10T10:59:34.504Z,13.30
2023-05-10T11:00:41.853Z,13.36
2023-05-10T11:02:54.830Z,12.89
2023-05-10T11:04:16.634Z,12.78
2023-05-10T11:06:34.771Z,12.73
2023-05-10T11:07:36.239Z,12.70
2023-05-10T11:08:47.010Z,12.71
2023-05-10T11:09:48.754Z,12.73
2023-05-10T11:11:09.573Z,12.77
2023-05-10T11:12:10.959Z,12.92
2023-05-10T11:13:12.367Z,12.97
2023-05-10T11:14:14.219Z,12.93
2023-05-10T11:15:15.900Z,12.92
2023-05-10T11:16:24.507Z,12.87
2023-05-10T11:17:30.130Z,13.04
2023-05-10T11:18:31.691Z,13.11
2023-05-10T11:19:33.222Z,13.02
2023-05-10T11:20:40.998Z,12.87
2023-05-10T11:21:51.192Z,12.95
2023-05-10T11:22:53.933Z,13.02
2023-05-10T11:24:00.518Z,13.13
2023-05-10T11:25:02.046Z,13.25
2023-05-10T11:26:03.396Z,13.36
2023-05-10T11:27:04.995Z,13.19
2023-05-10T11:28:07.173Z,13.09
2023-05-10T11:29:08.701Z,13.23
2023-05-10T11:30:13.645Z,13.22
2023-05-10T11:31:16.736Z,13.38
2023-05-10T11:32:18.345Z,13.41
2023-05-10T11:33:20.792Z,13.32
2023-05-10T11:34:34.624Z,13.48
2023-05-10T11:35:43.214Z,13.43
2023-05-10T11:36:52.917Z,13.68
2023-05-10T11:37:54.482Z,13.78
2023-05-10T11:38:57.239Z,13.93
2023-05-10T11:39:58.652Z,14.03
2023-05-10T11:41:00.302Z,14.20
2023-05-10T11:42:01.928Z,14.41
2023-05-10T11:43:04.120Z,14.15
2023-05-10T11:44:05.638Z,14.00
2023-05-10T11:45:08.042Z,14.00
2023-05-10T11:46:12.153Z,13.90
2023-05-10T11:47:13.661Z,13.81
2023-05-10T11:48:15.327Z,13.82
2023-05-10T11:49:16.749Z,13.69
2023-05-10T11:50:19.274Z,13.86
2023-05-10T11:51:22.399Z,13.79
2023-05-10T11:52:24.899Z,13.91
2023-05-10T11:53:27.999Z,13.93
2023-05-10T11:54:29.404Z,14.20
2023-05-10T11:55:34.397Z,14.06
2023-05-10T11:56:36.061Z,14.06
2023-05-10T11:57:39.457Z,14.36
2023-05-10T11:58:41.006Z,14.21
2023-05-10T11:59:43.299Z,14.27
2023-05-10T12:00:45.374Z,14.11
2023-05-10T12:01:47.009Z,14.09
2023-05-10T12:02:49.544Z,13.98
2023-05-10T12:03:52.506Z,14.13
2023-05-10T12:04:55.901Z,14.02
2023-05-10T12:05:58.445Z,14.09
2023-05-10T12:07:00.012Z,13.98
2023-05-10T12:08:21.070Z,14.17
2023-05-10T12:09:35.385Z,14.20
2023-05-10T12:10:41.622Z,14.09
2023-05-10T12:11:44.524Z,14.07
2023-05-10T12:12:51.046Z,14.05
2023-05-10T12:13:52.700Z,14.15
2023-05-10T12:14:54.120Z,14.18
2023-05-10T12:15:58.749Z,14.13
2023-05-10T12:17:00.257Z,14.19
2023-05-10T12:18:02.269Z,14.45
2023-05-10T12:19:03.869Z,14.40
2023-05-10T12:20:22.829Z,14.41
2023-05-10T12:21:24.588Z,14.33
2023-05-10T12:22:26.044Z,14.18
2023-05-10T12:23:27.546Z,14.17
2023-05-10T12:24:28.960Z,14.26
2023-05-10T12:25:32.724Z,14.59
2023-05-10T12:26:36.466Z,14.55
2023-05-10T12:27:38.126Z,14.43
2023-05-10T12:28:40.457Z,14.58
2023-05-10T12:29:45.444Z,14.64
2023-05-10T12:30:50.005Z,14.70
2023-05-10T12:31:59.428Z,14.76
2023-05-10T12:33:04.307Z,14.67
2023-05-10T12:34:05.757Z,14.71
2023-05-10T12:35:08.280Z,14.71
2023-05-10T12:36:11.409Z,14.82
2023-05-10T12:37:13.296Z,14.79
2023-05-10T12:38:34.700Z,14.86
2023-05-10T12:39:44.134Z,14.49
2023-05-10T12:40:45.577Z,14.39
2023-05-10T12:41:47.115Z,14.10
2023-05-10T12:42:49.653Z,14.31
2023-05-10T12:43:52.922Z,14.32
2023-05-10T12:44:57.947Z,14.39
2023-05-10T12:46:00.201Z,14.46
2023-05-10T12:47:01.581Z,14.41
2023-05-10T12:48:03.390Z,14.28
2023-05-10T12:49:08.964Z,14.39
2023-05-10T12:50:11.962Z,14.47
2023-05-10T12:51:16.683Z,14.31
2023-05-10T12:52:18.480Z,14.46
2023-05-10T12:53:20.162Z,14.45
2023-05-10T12:54:21.707Z,14.46
2023-05-10T12:55:23.265Z,14.74
2023-05-10T12:56:24.846Z,14.65
2023-05-10T12:57:31.900Z,14.37
2023-05-10T12:58:35.989Z,14.47
2023-05-10T12:59:38.369Z,14.68
2023-05-10T13:00:39.950Z,14.74
2023-05-10T13:01:41.706Z,14.91
2023-05-10T13:02:44.405Z,15.00
2023-05-10T13:03:46.412Z,14.83
2023-05-10T13:04:50.920Z,14.88
2023-05-10T13:05:52.981Z,14.84
2023-05-10T13:06:56.455Z,14.89
2023-05-10T13:07:57.804Z,15.02
2023-05-10T13:08:59.180Z,15.09
2023-05-10T13:10:00.600Z,14.83
2023-05-10T13:11:03.542Z,15.00
2023-05-10T13:12:09.433Z,15.13
2023-05-10T13:13:11.627Z,15.38
2023-05-10T13:14:14.333Z,15.09
2023-05-10T13:15:15.865Z,15.38
2023-05-10T13:16:17.312Z,15.52
2023-05-10T13:17:18.759Z,15.37
2023-05-10T13:18:20.452Z,15.39
2023-05-10T13:19:21.871Z,15.46
2023-05-10T13:20:23.290Z,15.45
2023-05-10T13:21:25.982Z,15.25
2023-05-10T13:22:39.311Z,15.27
2023-05-10T13:23:41.800Z,15.16
2023-05-10T13:24:43.136Z,15.14
2023-05-10T13:25:44.504Z,15.04
2023-05-10T13:26:45.937Z,15.00
2023-05-10T13:27:47.397Z,14.89
2023-05-10T13:28:49.839Z,15.03
2023-05-10T13:29:51.451Z,14.85
2023-05-10T13:30:52.847Z,14.93
2023-05-10T13:31:54.459Z,15.02
2023-05-10T13:32:56.115Z,15.16
2023-05-10T13:33:57.558Z,15.05
2023-05-10T13:34:58.965Z,15.02
2023-05-10T13:36:00.316Z,14.75
2023-05-10T13:37:01.872Z,14.83
2023-05-10T13:38:03.413Z,14.95
2023-05-10T13:39:06.197Z,15.10
2023-05-10T13:40:08.158Z,15.12
2023-05-10T13:41:12.705Z,15.23
2023-05-10T13:42:14.399Z,15.44
2023-05-10T13:43:16.185Z,15.36
2023-05-10T13:44:17.598Z,15.23
2023-05-10T13:45:19.129Z,14.97
2023-05-10T13:46:20.902Z,15.04
2023-05-10T13:47:23.248Z,14.87
2023-05-10T13:48:24.767Z,14.84
2023-05-10T13:49:26.160Z,14.78
2023-05-10T13:50:27.973Z,14.81
2023-05-10T13:51:29.417Z,15.15
2023-05-10T13:52:30.817Z,14.98
2023-05-10T13:53:32.234Z,15.01
2023-05-10T13:54:35.331Z,15.12
2023-05-10T13:55:36.733Z,15.04
2023-05-10T13:56:38.504Z,15.02
2023-05-10T13:57:39.869Z,14.82
2023-05-10T13:58:42.336Z,14.97
2023-05-10T13:59:43.673Z,15.14
2023-05-10T14:00:45.017Z,15.55
2023-05-10T14:01:46.595Z,15.50
2023-05-10T14:02:48.744Z,15.59
2023-05-10T14:03:50.596Z,15.48
2023-05-10T14:04:52.632Z,15.51
2023-05-10T14:05:54.199Z,15.63
2023-05-10T14:06:55.831Z,15.73
2023-05-10T14:07:58.182Z,15.49
2023-05-10T14:08:59.753Z,15.26
2023-05-10T14:10:01.642Z,15.18
2023-05-10T14:11:03.371Z,15.51
2023-05-10T14:12:05.001Z,15.49
2023-05-10T14:13:07.164Z,15.33
2023-05-10T14:14:08.611Z,15.14
2023-05-10T14:15:12.350Z,15.12
2023-05-10T14:16:15.659Z,15.13
2023-05-10T14:17:17.070Z,15.05
2023-05-10T14:18:18.676Z,15.17
2023-05-10T14:19:20.224Z,15.23
2023-05-10T14:20:21.672Z,15.26
2023-05-10T14:21:23.024Z,14.86
2023-05-10T14:22:24.569Z,14.71
2023-05-10T14:23:26.636Z,14.85
2023-05-10T14:24:28.126Z,14.64
2023-05-10T14:25:29.520Z,14.57
2023-05-10T14:26:31.201Z,14.78
2023-05-10T14:27:33.424Z,14.86
2023-05-10T14:28:34.918Z,14.79
2023-05-10T14:29:36.499Z,14.74
2023-05-10T14:30:37.902Z,14.91
2023-05-10T14:31:41.285Z,14.96
2023-05-10T14:32:42.911Z,15.11
2023-05-10T14:33:44.319Z,15.02
2023-05-10T14:34:45.850Z,15.09
2023-05-10T14:35:47.813Z,15.23
2023-05-10T14:36:49.293Z,15.24
2023-05-10T14:37:51.198Z,15.36
2023-05-10T14:38:52.592Z,15.43
2023-05-10T14:39:54.635Z,15.18
2023-05-10T14:40:56.061Z,15.14
2023-05-10T14:41:57.483Z,15.02
2023-05-10T14:42:58.997Z,14.91
2023-05-10T14:44:00.351Z,14.78
2023-05-10T14:45:01.800Z,14.89
2023-05-10T14:46:03.326Z,15.06
2023-05-10T14:47:04.913Z,15.29
2023-05-10T14:48:06.916Z,15.32
2023-05-10T14:49:08.466Z,15.41
2023-05-10T14:50:10.085Z,15.57
2023-05-10T14:51:11.972Z,15.56
2023-05-10T14:52:13.425Z,15.47
2023-05-10T14:53:15.001Z,15.54
2023-05-10T14:54:16.465Z,15.45
2023-05-10T14:55:18.198Z,15.55
2023-05-10T14:56:19.804Z,15.57
2023-05-10T14:57:21.234Z,15.50
2023-05-10T14:58:22.714Z,15.27
2023-05-10T14:59:24.276Z,15.19
2023-05-10T15:00:26.119Z,15.27
2023-05-10T15:01:28.142Z,15.31
2023-05-10T15:02:31.475Z,15.40
2023-05-10T15:03:33.219Z,15.32
2023-05-10T15:04:34.945Z,15.41
2023-05-10T15:05:38.349Z,15.32
2023-05-10T15:06:39.825Z,15.27
2023-05-10T15:07:41.396Z,15.16
2023-05-10T15:08:42.817Z,15.18
2023-05-10T15:09:44.209Z,15.23
2023-05-10T15:10:45.649Z,15.41
2023-05-10T15:11:47.032Z,15.31
2023-05-10T15:12:48.492Z,15.22
2023-05-10T15:13:49.878Z,15.12
2023-05-10T15:14:51.236Z,15.20
2023-05-10T15:15:52.794Z,15.27
2023-05-10T15:16:54.264Z,15.14
2023-05-10T15:17:55.734Z,15.24
2023-05-10T15:18:57.130Z,15.23
2023-05-10T15:19:58.535Z,15.29
2023-05-10T15:20:59.916Z,15.26
2023-05-10T15:22:01.390Z,15.33
2023-05-10T15:23:02.914Z,15.17
2023-05-10T15:24:04.780Z,15.13
2023-05-10T15:25:06.779Z,15.21
2023-05-10T15:26:08.863Z,15.33
2023-05-10T15:27:10.315Z,15.43
2023-05-10T15:28:11.774Z,15.44
2023-05-10T15:29:20.824Z,15.28
2023-05-10T15:30:22.311Z,15.24
2023-05-10T15:31:23.766Z,15.20
2023-05-10T15:32:25.217Z,14.93
2023-05-10T15:33:28.352Z,15.02
2023-05-10T15:34:30.372Z,14.98
2023-05-10T15:35:34.554Z,14.84
2023-05-10T15:36:35.881Z,14.95
2023-05-10T15:37:38.109Z,15.13
2023-05-10T15:38:39.465Z,15.35
2023-05-10T15:39:40.842Z,15.25
2023-05-10T15:40:42.469Z,15.16
2023-05-10T15:41:43.838Z,15.23
2023-05-10T15:42:45.474Z,15.38
2023-05-10T15:43:46.812Z,15.42
2023-05-10T15:44:51.107Z,15.14
2023-05-10T15:45:52.452Z,15.29
2023-05-10T15:46:53.853Z,15.30
2023-05-10T15:47:55.400Z,15.27
2023-05-10T15:48:58.584Z,15.24
2023-05-10T15:49:59.985Z,15.25
2023-05-10T15:51:01.381Z,15.28
2023-05-10T15:52:03.121Z,15.13
2023-05-10T15:53:04.520Z,15.20
2023-05-10T15:54:08.260Z,15.12
2023-05-10T15:55:13.077Z,15.04
2023-05-10T15:56:15.486Z,14.95
2023-05-10T15:57:17.403Z,14.97
2023-05-10T15:58:19.246Z,15.12
2023-05-10T15:59:21.017Z,15.06
2023-05-10T16:00:22.395Z,14.87
2023-05-10T16:01:23.826Z,14.91
2023-05-10T16:02:25.530Z,14.89
2023-05-10T16:03:27.124Z,14.74
2023-05-10T16:04:28.460Z,14.63
2023-05-10T16:05:32.617Z,14.50
2023-05-10T16:06:37.916Z,14.58
